createdAt,value
2022-11-05T00:04:40.666Z,101437.41
2022-11-05T00:10:06.716Z,101446.94
2022-11-05T00:15:48.711Z,101442.59
2022-11-05T00:21:25.708Z,101457.34
2022-11-05T00:26:48.800Z,101462.53
2022-11-05T00:32:13.225Z,101467.75
2022-11-05T00:37:36.726Z,101467.75
2022-11-05T00:43:17.270Z,101461.69
2022-11-05T00:48:59.123Z,101477.25
2022-11-05T00:54:22.274Z,101474.69
2022-11-05T00:59:45.374Z,101487.69
2022-11-05T01:05:10.282Z,101481.63
2022-11-05T01:10:33.823Z,101488.56
2022-11-05T01:15:57.580Z,101486.81
2022-11-05T01:21:22.033Z,101496.38
2022-11-05T01:26:45.164Z,101495.53
2022-11-05T01:32:08.530Z,101499.84
2022-11-05T01:37:32.954Z,101490.31
2022-11-05T01:42:56.107Z,101492.06
2022-11-05T01:48:21.455Z,101495.53
2022-11-05T01:53:48.171Z,101486.88
2022-11-05T01:59:13.300Z,101487.72
2022-11-05T02:04:39.654Z,101475.59
2022-11-05T02:10:06.148Z,101473.00
2022-11-05T02:15:36.902Z,101478.19
2022-11-05T02:21:20.327Z,101479.09
2022-11-05T02:27:19.090Z,101473.03
2022-11-05T02:33:01.381Z,101469.53
2022-11-05T02:38:33.426Z,101472.13
2022-11-05T02:44:06.256Z,101465.16
2022-11-05T02:49:40.152Z,101467.78
2022-11-05T02:55:08.185Z,101466.94
2022-11-05T03:00:50.476Z,101471.28
2022-11-05T03:06:48.448Z,101475.59
2022-11-05T03:12:21.444Z,101483.34
2022-11-05T03:17:53.979Z,101484.19
2022-11-05T03:23:25.278Z,101486.81
2022-11-05T03:28:51.940Z,101481.59
2022-11-05T03:34:15.657Z,101475.50
2022-11-05T03:39:43.068Z,101478.13
2022-11-05T03:45:09.640Z,101473.81
2022-11-05T03:50:41.245Z,101463.41
2022-11-05T03:56:08.349Z,101462.53
2022-11-05T04:01:31.861Z,101465.16
2022-11-05T04:07:12.656Z,101469.50
2022-11-05T04:12:54.802Z,101473.00
2022-11-05T04:18:18.009Z,101481.66
2022-11-05T04:23:59.230Z,101483.38
2022-11-05T04:29:41.289Z,101481.66
2022-11-05T04:35:04.564Z,101472.13
2022-11-05T04:40:27.714Z,101486.00
2022-11-05T04:45:52.221Z,101492.94
2022-11-05T04:51:15.402Z,101496.41
2022-11-05T04:56:40.201Z,101499.88
2022-11-05T05:02:04.734Z,101497.25
2022-11-05T05:07:28.502Z,101499.88
2022-11-05T05:12:51.669Z,101496.41
2022-11-05T05:18:16.264Z,101504.19
2022-11-05T05:23:39.389Z,101492.03
2022-11-05T05:29:02.572Z,101506.75
2022-11-05T05:34:27.037Z,101505.88
2022-11-05T05:39:50.228Z,101504.19
2022-11-05T05:45:13.454Z,101500.75
2022-11-05T05:50:37.948Z,101511.09
2022-11-05T05:56:03.767Z,101505.03
2022-11-05T06:01:26.891Z,101519.78
2022-11-05T06:06:51.574Z,101521.50
2022-11-05T06:12:14.848Z,101524.94
2022-11-05T06:17:38.010Z,101524.94
2022-11-05T06:23:02.611Z,101519.78
2022-11-05T06:28:25.775Z,101519.75
2022-11-05T06:33:48.987Z,101537.94
2022-11-05T06:39:13.898Z,101541.41
2022-11-05T06:44:37.163Z,101539.72
2022-11-05T06:50:00.304Z,101544.03
2022-11-05T06:55:25.206Z,101546.63
2022-11-05T07:00:48.528Z,101545.78
2022-11-05T07:06:11.934Z,101546.63
2022-11-05T07:11:36.568Z,101548.34
2022-11-05T07:16:59.716Z,101544.88
2022-11-05T07:22:22.787Z,101540.56
2022-11-05T07:27:47.301Z,101541.44
2022-11-05T07:33:10.880Z,101545.78
2022-11-05T07:38:34.174Z,101551.84
2022-11-05T07:43:58.691Z,101559.63
2022-11-05T07:49:23.757Z,101569.16
2022-11-05T07:54:46.924Z,101573.47
2022-11-05T08:00:16.366Z,101572.59
2022-11-05T08:05:41.295Z,101562.03
2022-11-05T08:11:05.163Z,101557.63
2022-11-05T08:16:29.605Z,101555.81
2022-11-05T08:21:52.737Z,101566.19
2022-11-05T08:27:16.228Z,101561.78
2022-11-05T08:32:40.874Z,101561.00
2022-11-05T08:38:06.432Z,101560.19
2022-11-05T08:43:31.474Z,101568.88
2022-11-05T08:48:55.942Z,101582.72
2022-11-05T08:54:19.087Z,101584.56
2022-11-05T08:59:42.228Z,101584.44
2022-11-05T09:05:07.754Z,101579.16
2022-11-05T09:10:30.894Z,101577.31
2022-11-05T09:15:53.996Z,101578.09
2022-11-05T09:21:19.071Z,101571.06
2022-11-05T09:26:42.259Z,101573.59
2022-11-05T09:32:05.627Z,101579.69
2022-11-05T09:37:30.659Z,101553.00
2022-11-05T09:42:55.024Z,101585.69
2022-11-05T09:48:19.277Z,101582.00
2022-11-05T09:53:45.133Z,101584.41
2022-11-05T09:59:17.197Z,101569.50
2022-11-05T10:04:40.949Z,101561.53
2022-11-05T10:10:07.534Z,101568.44
2022-11-05T10:15:32.585Z,101567.56
2022-11-05T10:20:55.664Z,101565.41
2022-11-05T10:26:23.037Z,101568.50
2022-11-05T10:31:46.144Z,101570.25
2022-11-05T10:37:09.972Z,101570.91
2022-11-05T10:42:49.777Z,101564.69
2022-11-05T10:48:29.397Z,101569.16
2022-11-05T10:54:00.515Z,101570.72
2022-11-05T10:59:27.998Z,101585.28
2022-11-05T11:04:53.172Z,101578.44
2022-11-05T11:10:20.746Z,101594.03
2022-11-05T11:15:45.265Z,101583.34
2022-11-05T11:21:14.394Z,101577.84
2022-11-05T11:26:38.802Z,101570.13
2022-11-05T11:32:03.440Z,101576.13
2022-11-05T11:37:28.987Z,101576.06
2022-11-05T11:42:54.069Z,101560.34
2022-11-05T11:48:20.629Z,101562.38
2022-11-05T11:53:43.752Z,101576.31
2022-11-05T11:59:16.305Z,101572.97
2022-11-05T12:04:58.283Z,101567.00
2022-11-05T12:10:41.614Z,101565.22
2022-11-05T12:16:09.565Z,101559.22
2022-11-05T12:21:52.515Z,101554.88
2022-11-05T12:27:24.642Z,101546.09
2022-11-05T12:33:12.549Z,101551.28
2022-11-05T12:38:52.747Z,101538.81
2022-11-05T12:44:24.669Z,101526.22
2022-11-05T12:49:59.968Z,101520.91
2022-11-05T12:55:27.194Z,101516.56
2022-11-05T13:00:56.362Z,101515.53
2022-11-05T13:06:23.910Z,101509.94
2022-11-05T13:11:52.531Z,101508.19
2022-11-05T13:17:17.643Z,101498.00
2022-11-05T13:22:44.052Z,101510.34
2022-11-05T13:28:19.252Z,101500.78
2022-11-05T13:33:43.952Z,101490.28
2022-11-05T13:39:14.532Z,101493.84
2022-11-05T13:45:02.470Z,101498.81
2022-11-05T13:50:59.699Z,101496.44
2022-11-05T13:56:41.222Z,101493.75
2022-11-05T14:02:11.611Z,101490.47
2022-11-05T14:07:36.439Z,101482.66
2022-11-05T14:13:04.333Z,101478.88
2022-11-05T14:18:43.649Z,101468.91
2022-11-05T14:24:25.668Z,101472.53
2022-11-05T14:29:49.503Z,101472.78
2022-11-05T14:35:36.700Z,101485.00
2022-11-05T14:41:02.527Z,101481.41
2022-11-05T14:46:25.843Z,101478.84
2022-11-05T14:51:52.062Z,101485.81
2022-11-05T14:57:16.710Z,101468.91
2022-11-05T15:02:39.895Z,101475.84
2022-11-05T15:08:29.321Z,101480.50
2022-11-05T15:14:02.783Z,101444.22
2022-11-05T15:19:30.793Z,101487.84
2022-11-05T15:24:55.959Z,101482.03
2022-11-05T15:30:21.594Z,101470.34
2022-11-05T15:35:44.670Z,101466.13
2022-11-05T15:41:16.151Z,101462.72
2022-11-05T15:46:42.292Z,101450.78
2022-11-05T15:52:05.819Z,101471.66
2022-11-05T15:57:30.875Z,101466.59
2022-11-05T16:02:56.438Z,101468.47
2022-11-05T16:08:20.979Z,101449.28
2022-11-05T16:13:48.274Z,101452.56
2022-11-05T16:19:40.100Z,101451.78
2022-11-05T16:25:27.118Z,101450.13
2022-11-05T16:30:56.290Z,101458.72
2022-11-05T16:36:19.708Z,101449.38
2022-11-05T16:41:43.725Z,101444.34
2022-11-05T16:47:09.535Z,101440.72
2022-11-05T16:52:32.613Z,101447.88
2022-11-05T16:57:56.454Z,101438.34
2022-11-05T17:03:20.906Z,101434.88
2022-11-05T17:08:45.158Z,101443.50
2022-11-05T17:14:09.705Z,101449.38
2022-11-05T17:19:34.489Z,101449.56
2022-11-05T17:24:57.558Z,101461.84
2022-11-05T17:30:20.920Z,101443.56
2022-11-05T17:35:45.353Z,101438.41
2022-11-05T17:41:12.431Z,101441.75
2022-11-05T17:46:35.553Z,101432.06
2022-11-05T17:51:59.981Z,101425.28
2022-11-05T17:57:23.086Z,101428.75
2022-11-05T18:02:48.451Z,101411.56
2022-11-05T18:08:13.271Z,101426.16
2022-11-05T18:13:36.373Z,101419.81
2022-11-05T18:18:59.846Z,101418.09
2022-11-05T18:24:24.303Z,101408.53
2022-11-05T18:29:47.834Z,101392.16
2022-11-05T18:35:11.050Z,101409.38
2022-11-05T18:40:35.563Z,101399.00
2022-11-05T18:45:58.666Z,101386.94
2022-11-05T18:51:21.784Z,101374.69
2022-11-05T18:56:46.310Z,101372.09
2022-11-05T19:02:11.912Z,101371.28
2022-11-05T19:07:37.094Z,101364.25
2022-11-05T19:13:01.542Z,101347.59
2022-11-05T19:18:24.637Z,101346.69
2022-11-05T19:23:47.908Z,101344.81
2022-11-05T19:29:12.623Z,101338.94
2022-11-05T19:34:36.143Z,101342.25
2022-11-05T19:39:59.261Z,101341.44
2022-11-05T19:45:43.517Z,101327.47
2022-11-05T19:51:07.524Z,101317.13
2022-11-05T19:56:32.053Z,101310.03
2022-11-05T20:01:56.600Z,101313.53
2022-11-05T20:07:20.380Z,101307.31
2022-11-05T20:12:43.438Z,101296.22
2022-11-05T20:18:11.125Z,101300.38
2022-11-05T20:23:35.947Z,101296.16
2022-11-05T20:28:59.058Z,101297.78
2022-11-05T20:34:23.512Z,101283.88
2022-11-05T20:39:46.626Z,101299.66
2022-11-05T20:45:10.532Z,101297.03
2022-11-05T20:50:34.994Z,101294.34
2022-11-05T20:55:58.091Z,101296.13
2022-11-05T21:01:21.538Z,101298.69
2022-11-05T21:06:45.981Z,101290.16
2022-11-05T21:12:12.088Z,101292.72
2022-11-05T21:17:35.208Z,101287.44
2022-11-05T21:22:59.598Z,101284.84
2022-11-05T21:28:22.883Z,101281.25
2022-11-05T21:33:48.715Z,101281.34
2022-11-05T21:39:15.398Z,101277.03
2022-11-05T21:44:38.493Z,101282.84
2022-11-05T21:50:01.548Z,101278.00
2022-11-05T21:55:43.560Z,101270.13
2022-11-05T22:01:06.671Z,101275.38
2022-11-05T22:06:29.855Z,101270.16
2022-11-05T22:11:54.369Z,101276.34
2022-11-05T22:17:17.494Z,101274.84
2022-11-05T22:22:40.589Z,101267.06
2022-11-05T22:28:05.538Z,101247.03
2022-11-05T22:33:28.629Z,101244.31
2022-11-05T22:38:51.696Z,101243.47
2022-11-05T22:44:16.702Z,101227.84
2022-11-05T22:49:39.788Z,101219.84
2022-11-05T22:55:05.108Z,101212.97
2022-11-05T23:00:37.215Z,101217.25
2022-11-05T23:06:02.182Z,101217.13
2022-11-05T23:11:38.662Z,101234.38
2022-11-05T23:17:20.769Z,101225.69
2022-11-05T23:22:57.737Z,101215.97
2022-11-05T23:28:21.248Z,101211.75
2022-11-05T23:33:45.747Z,101201.41
2022-11-05T23:39:08.849Z,101213.75
2022-11-05T23:44:49.690Z,101217.38
2022-11-05T23:50:14.130Z,101208.72
2022-11-05T23:55:37.444Z,101209.56
